Gleneden Beach, OR (97388)

11:26 PM PST on February 09, 2016 (GMT -0800)
Coronado Shores Beach Club | | Change Station
CLOSE
Current Station
Personal Weather Station
Location: Gleneden Beach, OR
Elevation: 72 ft
Nearby Weather Stations

Elev 72 ft 44.87 °N, 124.04 °W | Updated 9 minutes ago

Clear
Clear
50.8 °F
Feels Like 50.8 °F
N
4.0
Wind Variable Wind from SSW
Gusts 8.0 mph

Today
High -- | Low -- °F
--% Chance of Precip.
Yesterday
High -- | Low -- °F
Precip. -- in
Pressure 30.17 in
Visibility 10.0 miles
Clouds Clear
Dew Point 46 °F
Humidity 85%
Rainfall 0.00 in
Snow Depth Not available.
7:25 AM 5:35 PM
Waxing Crescent, 4% visible
METAR KONP 100715Z AUTO 15004KT 10SM CLR 10/08 A3017 RMK AO2
Pressure 30.17 in
Visibility 10.0 miles
Clouds Clear
Dew Point 46 °F
Humidity 85%
Rainfall 0.00 in
Snow Depth Not available.
7:25 AM 5:35 PM
Waxing Crescent, 4% visible
METAR KONP 100715Z AUTO 15004KT 10SM CLR 10/08 A3017 RMK AO2

10-Day Weather Forecast

Almanac

Astronomy

Feb. 09, 2016 Rise Set
Actual Time
Civil Twilight
Nautical Twilight
Astronomical Twilight
Moon
Length of Visible Light
Length of Day
Tomorrow will be .
, % of the Moon is Illuminated

Today's Extremes

State Highs State Lows

Community

WunderPhotos

Upload Photos

1,891,826 photos uploaded!

WunderBlog® & News

Nearby

Air Quality

  Air Quality AQ Index Pollutant
Not available.

Snow Depth

Station Depth Elevation

Earthquake Activity

City Distance Mag. Time & Date
Minimum magnitude displayed is 2.5.

Coastal Water Temperatures

Place Temperature

Stations

Nearby Weather Stations

Station Location Temp. Windchill Dew Point Humidity Wind Precip. Elev Updated Type
                   

Watches & Warnings

There are currently no watches in effect.